AL16 weather

Turkey Creek Airport
Pinson, Alabama, United States

Public forecast

Using degrees Fahrenheit for public forecast. Weather courtesy of forecast.io.

Closest aviation weather report (METAR) to Turkey Creek Airport

Closest report is Birmingham-Shuttlesworth International Airport, 10.0 nm (18.4 km) S. Retrieved 2019/11/21 06:53 UTC (9 minutes ago):

KBHM 210653Z 00000KT 10SM BKN250 08/04 A3023 RMK AO2 SLP233 T00830044

Closest aviation forecast (TAF) to Turkey Creek Airport

Closest forecast is Birmingham-Shuttlesworth International Airport, 10.0 nm (18.4 km) S. Retrieved 2019/11/21 06:22 UTC (40 minutes ago):

TAF KBHM 210520Z 2106/2206 00000KT P6SM FEW150 BKN250 FM211500 17007KT P6SM SCT250 FM220000 16002KT P6SM FEW120 BKN250